Time;durP1;ratioP1;P1;durP2;ratioP2;P2;SDS_P1;SDS_P2;PMS_P1;PMS_P2;Temp;Humidity;BMP_temperature;BMP_pressure;BME280_temperature;BME280_humidity;BME280_pressure;Samples;Min_cycle;Max_cycle;Signal;HPM_P1;HPM_P2
2022/03/27 00:01:58;;;;;;;1358.03;999.90;;;;;;;3.78;100.00;102572.28;5036626;28;20711;-79
2022/03/27 00:04:26;;;;;;;1356.78;999.90;;;;;;;3.71;100.00;102567.63;5056676;28;20695;-79
2022/03/27 00:06:59;;;;;;;1355.88;999.90;;;;;;;3.71;100.00;102564.94;5037260;28;20413;-79
2022/03/27 00:09:28;;;;;;;1358.22;999.90;;;;;;;3.73;100.00;102567.47;5038215;28;20052;-78
2022/03/27 00:12:01;;;;;;;1358.55;999.90;;;;;;;3.67;100.00;102565.53;5037706;28;20046;-81
2022/03/27 00:14:34;;;;;;;1358.28;999.90;;;;;;;3.65;100.00;102568.41;5040915;28;20056;-80
2022/03/27 00:17:04;;;;;;;1360.10;999.90;;;;;;;3.62;100.00;102568.78;5030743;28;20049;-79
2022/03/27 00:19:32;;;;;;;1365.13;999.90;;;;;;;3.64;100.00;102574.81;5044718;28;20421;-79
2022/03/27 00:22:05;;;;;;;1365.35;999.90;;;;;;;3.64;100.00;102582.88;5041881;28;20041;-79
2022/03/27 00:24:38;;;;;;;1371.47;999.90;;;;;;;3.62;100.00;102578.69;5034349;28;20049;-80
2022/03/27 00:27:07;;;;;;;1369.97;999.90;;;;;;;3.61;100.00;102568.97;5041724;28;20414;-80
2022/03/27 00:29:40;;;;;;;1370.82;999.90;;;;;;;3.57;100.00;102572.03;5041248;28;20723;-79
2022/03/27 00:32:15;;;;;;;1369.25;999.90;;;;;;;3.54;100.00;102575.09;5052581;28;20057;-80
2022/03/27 00:34:43;;;;;;;1368.40;999.90;;;;;;;3.55;100.00;102565.19;5043984;28;20056;-80
2022/03/27 00:37:16;;;;;;;1373.40;999.90;;;;;;;3.43;100.00;102555.91;5039290;28;20071;-79
2022/03/27 00:39:44;;;;;;;1376.55;999.90;;;;;;;3.43;100.00;102569.34;5034545;28;20053;-80
2022/03/27 00:42:21;;;;;;;1376.95;999.90;;;;;;;3.47;100.00;102576.03;5035728;28;20061;-80
2022/03/27 00:44:54;;;;;;;1377.68;999.90;;;;;;;3.41;100.00;102566.81;5032136;28;20053;-80
2022/03/27 00:47:29;;;;;;;1375.80;999.90;;;;;;;3.37;100.00;102570.91;5050119;28;20774;-79
2022/03/27 00:50:02;;;;;;;1376.78;999.90;;;;;;;3.29;100.00;102568.31;5031204;28;20057;-80
2022/03/27 00:52:35;;;;;;;1378.00;999.90;;;;;;;3.31;100.00;102568.97;5042801;28;20053;-80
2022/03/27 00:55:08;;;;;;;1384.00;999.90;;;;;;;3.34;100.00;102560.50;5041063;28;20053;-79
2022/03/27 00:57:41;;;;;;;1386.38;999.90;;;;;;;3.26;100.00;102544.47;5037252;28;20053;-80
2022/03/27 01:00:19;;;;;;;1385.32;999.90;;;;;;;3.29;100.00;102550.31;5040907;28;20862;-79
2022/03/27 01:02:55;;;;;;;1388.00;999.90;;;;;;;3.35;100.00;102556.81;5047745;28;20408;-79
2022/03/27 01:05:29;;;;;;;1392.93;999.90;;;;;;;3.32;100.00;102546.41;5028548;28;20049;-79
2022/03/27 01:08:06;;;;;;;1399.38;999.90;;;;;;;3.29;100.00;102549.50;5047664;28;20052;-79
2022/03/27 01:10:34;;;;;;;1403.75;999.90;;;;;;;3.31;100.00;102548.25;5048830;28;20057;-80
2022/03/27 01:13:10;;;;;;;1407.93;999.90;;;;;;;3.33;100.00;102556.16;5030417;28;20072;-81
2022/03/27 01:15:47;;;;;;;1413.40;999.90;;;;;;;3.31;100.00;102552.81;5032518;28;20048;-81
2022/03/27 01:18:17;;;;;;;1420.97;999.90;;;;;;;3.28;100.00;102551.31;5033964;28;20520;-79
2022/03/27 01:20:53;;;;;;;1434.35;999.90;;;;;;;3.28;100.00;102548.63;5049099;28;20037;-80
2022/03/27 01:23:26;;;;;;;1438.90;999.90;;;;;;;3.29;100.00;102544.09;5035867;28;20808;-80
2022/03/27 01:25:59;;;;;;;1448.53;999.90;;;;;;;3.33;100.00;102543.53;5039914;28;20046;-81
2022/03/27 01:28:27;;;;;;;1467.95;999.90;;;;;;;3.33;100.00;102538.16;5037515;28;20505;-80
2022/03/27 01:31:00;;;;;;;1477.10;999.90;;;;;;;3.29;100.00;102534.16;5045077;28;20049;-80
2022/03/27 01:33:34;;;;;;;1477.30;999.90;;;;;;;3.29;100.00;102553.00;5043537;28;20386;-80
2022/03/27 01:36:08;;;;;;;1477.50;999.90;;;;;;;3.30;100.00;102548.44;5038208;28;20053;-80
2022/03/27 01:38:41;;;;;;;1469.57;999.90;;;;;;;3.31;100.00;102540.19;5043798;28;20048;-80
2022/03/27 01:41:14;;;;;;;1468.35;999.90;;;;;;;3.08;100.00;102545.66;5047829;28;20065;-80
2022/03/27 01:43:42;;;;;;;1461.80;999.90;;;;;;;3.11;100.00;102557.88;5047312;28;20481;-79
2022/03/27 01:46:11;;;;;;;1451.55;999.90;;;;;;;3.06;100.00;102553.06;5040501;28;20414;-79
2022/03/27 01:48:39;;;;;;;1440.90;999.90;;;;;;;3.00;100.00;102549.25;5035775;28;20056;-81
2022/03/27 01:51:09;;;;;;;1431.55;999.90;;;;;;;2.98;100.00;102553.97;5047913;28;20037;-79
2022/03/27 01:53:42;;;;;;;1428.68;999.90;;;;;;;3.00;100.00;102556.50;5039891;28;20525;-80
2022/03/27 01:56:15;;;;;;;1423.88;999.90;;;;;;;2.97;100.00;102562.22;5047469;28;20065;-80
2022/03/27 01:58:48;;;;;;;1415.65;999.90;;;;;;;2.94;100.00;102551.84;5043332;28;20056;-80
2022/03/27 02:01:21;;;;;;;1412.47;999.90;;;;;;;2.83;100.00;102545.03;5042819;28;20049;-80
2022/03/27 02:03:55;;;;;;;1406.00;999.90;;;;;;;2.89;100.00;102563.97;5046600;28;20060;-80
2022/03/27 02:06:25;;;;;;;1408.07;999.90;;;;;;;2.85;100.00;102559.16;5046578;28;20060;-80
2022/03/27 02:08:53;;;;;;;1411.50;999.90;;;;;;;2.86;100.00;102555.47;5047354;28;20076;-81
2022/03/27 02:11:26;;;;;;;1418.90;999.90;;;;;;;2.85;100.00;102556.47;5039955;28;20045;-81
2022/03/27 02:14:00;;;;;;;1429.80;999.90;;;;;;;2.84;100.00;102558.31;5047264;28;20054;-80
2022/03/27 02:16:33;;;;;;;1443.97;999.90;;;;;;;2.82;100.00;102567.59;5049596;28;20045;-80
2022/03/27 02:19:08;;;;;;;1455.60;999.90;;;;;;;2.85;100.00;102567.22;5048036;28;20417;-79
2022/03/27 02:21:44;;;;;;;1460.53;999.90;;;;;;;2.75;100.00;102554.03;5057422;28;20044;-79
2022/03/27 02:24:18;;;;;;;1463.07;999.90;;;;;;;2.77;100.00;102562.75;5040865;28;20072;-80
2022/03/27 02:26:48;;;;;;;1472.15;999.90;;;;;;;2.84;100.00;102565.53;5041123;28;20296;-80
2022/03/27 02:29:17;;;;;;;1482.53;999.90;;;;;;;2.87;100.00;102568.72;5055885;28;20040;-80
2022/03/27 02:31:50;;;;;;;1494.95;999.90;;;;;;;2.82;100.00;102564.91;5049409;28;20041;-80
2022/03/27 02:34:23;;;;;;;1500.20;999.90;;;;;;;2.58;100.00;102536.34;5045499;28;20732;-80
2022/03/27 02:36:53;;;;;;;1503.75;999.90;;;;;;;2.67;100.00;102546.88;5048063;28;20049;-80
2022/03/27 02:39:21;;;;;;;1501.93;999.90;;;;;;;2.72;100.00;102552.53;5043773;28;20053;-79
2022/03/27 02:41:49;;;;;;;1506.72;999.90;;;;;;;2.72;100.00;102557.06;5041768;28;20561;-80
2022/03/27 02:44:22;;;;;;;1505.75;999.90;;;;;;;2.68;100.00;102559.28;5057650;28;20037;-79
2022/03/27 02:46:55;;;;;;;1508.10;999.90;;;;;;;2.68;100.00;102566.50;5036160;28;20502;-79
2022/03/27 02:49:23;;;;;;;1516.80;999.90;;;;;;;2.67;100.00;102556.78;5045444;28;20056;-79
2022/03/27 02:51:53;;;;;;;1523.10;999.90;;;;;;;2.68;100.00;102551.22;5041177;28;20053;-79
2022/03/27 02:54:26;;;;;;;1527.03;999.90;;;;;;;2.66;100.00;102547.03;5035193;28;20049;-79
2022/03/27 02:56:54;;;;;;;1535.70;999.90;;;;;;;2.72;100.00;102555.22;5044721;28;20059;-82
2022/03/27 02:59:27;;;;;;;1534.93;999.90;;;;;;;2.66;100.00;102541.66;5050832;28;20056;-80
2022/03/27 03:02:03;;;;;;;1530.65;999.90;;;;;;;2.62;100.00;102530.44;5047588;28;20402;-79
2022/03/27 03:04:36;;;;;;;1532.85;999.90;;;;;;;2.66;100.00;102547.88;5043751;28;20045;-80
2022/03/27 03:07:11;;;;;;;1534.30;999.90;;;;;;;2.68;100.00;102548.53;5045711;28;20382;-79
2022/03/27 03:09:44;;;;;;;1540.05;999.90;;;;;;;2.66;100.00;102544.34;5044733;28;20056;-79
2022/03/27 03:12:13;;;;;;;1549.53;999.90;;;;;;;2.63;100.00;102542.88;5034202;28;20061;-80
2022/03/27 03:14:41;;;;;;;1553.93;999.90;;;;;;;2.60;100.00;102545.91;5048322;28;20054;-79
2022/03/27 03:17:09;;;;;;;1565.43;999.90;;;;;;;2.51;100.00;102541.63;5045282;28;20052;-79
2022/03/27 03:19:43;;;;;;;1570.95;999.90;;;;;;;2.45;100.00;102536.97;5057446;28;20065;-79
2022/03/27 03:22:18;;;;;;;1573.65;999.90;;;;;;;2.35;100.00;102519.22;5049546;28;20065;-79
2022/03/27 03:24:46;;;;;;;1578.75;999.90;;;;;;;2.46;100.00;102531.41;5047207;28;20050;-79
2022/03/27 03:27:20;;;;;;;1577.80;999.90;;;;;;;2.39;100.00;102517.03;5042647;28;20044;-79
2022/03/27 03:29:54;;;;;;;1579.80;999.90;;;;;;;2.28;100.00;102531.72;5049342;28;20061;-78
2022/03/27 03:32:28;;;;;;;1578.88;999.90;;;;;;;2.22;100.00;102510.94;5049778;28;20045;-79
2022/03/27 03:35:01;;;;;;;1588.18;999.90;;;;;;;2.26;100.00;102522.16;5040900;28;20041;-79
2022/03/27 03:37:31;;;;;;;1597.68;999.90;;;;;;;2.24;100.00;102506.22;5054337;28;20055;-79
2022/03/27 03:40:07;;;;;;;1601.45;999.90;;;;;;;2.31;100.00;102511.72;5040306;28;20048;-79
2022/03/27 03:42:40;;;;;;;1596.45;999.90;;;;;;;2.27;100.00;102519.28;5048622;28;20040;-81
2022/03/27 03:45:13;;;;;;;1597.90;999.90;;;;;;;2.15;100.00;102518.84;5044339;28;20795;-78
2022/03/27 03:47:46;;;;;;;1601.55;999.90;;;;;;;2.19;100.00;102513.97;5052128;28;20061;-81
2022/03/27 03:50:19;;;;;;;1601.00;999.90;;;;;;;2.11;100.00;102514.84;5041714;28;20065;-79
2022/03/27 03:52:53;;;;;;;1602.57;999.90;;;;;;;2.14;100.00;102522.59;5039541;28;20602;-79
2022/03/27 03:55:26;;;;;;;1600.20;999.90;;;;;;;2.11;100.00;102512.16;5046587;28;20053;-80
2022/03/27 03:57:59;;;;;;;1599.80;999.90;;;;;;;2.18;100.00;102521.22;5046819;28;20052;-80
2022/03/27 04:00:33;;;;;;;1599.88;999.90;;;;;;;2.14;100.00;102519.03;5043104;28;20390;-79
2022/03/27 04:03:07;;;;;;;1602.47;999.90;;;;;;;2.16;100.00;102536.66;5036418;28;20049;-79
2022/03/27 04:05:40;;;;;;;1597.93;999.90;;;;;;;2.01;100.00;102523.16;5036551;28;20072;-81
2022/03/27 04:08:15;;;;;;;1589.03;999.90;;;;;;;2.04;100.00;102527.34;5043321;28;20053;-79
2022/03/27 04:10:48;;;;;;;1584.35;999.90;;;;;;;1.95;100.00;102523.88;5042796;28;20076;-79
2022/03/27 04:13:21;;;;;;;1580.80;999.90;;;;;;;1.77;100.00;102524.13;5045025;28;20041;-79
2022/03/27 04:15:54;;;;;;;1567.53;999.90;;;;;;;1.84;100.00;102522.41;5037807;28;20064;-79
2022/03/27 04:18:24;;;;;;;1560.63;999.90;;;;;;;1.87;100.00;102519.38;5032199;28;20041;-79
2022/03/27 04:20:52;;;;;;;1555.22;999.90;;;;;;;1.98;100.00;102530.75;5047455;28;20056;-79
2022/03/27 04:23:22;;;;;;;1555.20;999.90;;;;;;;1.97;100.00;102527.19;5043074;28;20061;-80
2022/03/27 04:25:50;;;;;;;1552.85;999.90;;;;;;;1.96;100.00;102530.06;5036926;28;20053;-79
2022/03/27 04:28:18;;;;;;;1562.72;999.90;;;;;;;1.78;100.00;102515.06;5036886;28;20057;-78
2022/03/27 04:30:46;;;;;;;1567.15;999.90;;;;;;;1.90;100.00;102538.84;5043027;28;20045;-79
2022/03/27 04:33:19;;;;;;;1573.57;999.90;;;;;;;1.87;100.00;102534.66;5056435;28;20238;-79
2022/03/27 04:35:53;;;;;;;1578.20;999.90;;;;;;;1.91;100.00;102532.47;5068206;28;20063;-80
2022/03/27 04:38:27;;;;;;;1590.93;999.90;;;;;;;1.91;100.00;102527.91;5039962;28;20041;-80
2022/03/27 04:40:55;;;;;;;1596.53;999.90;;;;;;;1.90;100.00;102539.66;5038998;28;20049;-79
2022/03/27 04:43:29;;;;;;;1608.82;999.90;;;;;;;1.94;100.00;102538.31;5045825;28;20040;-80
2022/03/27 04:46:02;;;;;;;1615.78;999.90;;;;;;;2.01;100.00;102539.25;5059072;28;20517;-79
2022/03/27 04:48:30;;;;;;;1620.95;999.90;;;;;;;1.99;100.00;102541.31;5045976;28;20417;-79
2022/03/27 04:51:03;;;;;;;1618.15;999.90;;;;;;;1.97;100.00;102540.63;5052142;28;20049;-79
2022/03/27 04:53:38;;;;;;;1616.25;999.90;;;;;;;1.96;100.00;102538.13;5034258;28;20037;-80
2022/03/27 04:56:11;;;;;;;1613.70;999.90;;;;;;;1.96;100.00;102541.66;5040884;28;20053;-79
2022/03/27 04:58:44;;;;;;;1620.55;999.90;;;;;;;1.94;100.00;102534.78;5039408;28;20052;-79
2022/03/27 05:01:13;;;;;;;1621.72;999.90;;;;;;;1.89;100.00;102537.97;5034431;28;20052;-79
2022/03/27 05:03:46;;;;;;;1621.95;999.90;;;;;;;1.91;100.00;102541.34;5043555;28;20049;-79
2022/03/27 05:06:19;;;;;;;1632.68;999.90;;;;;;;1.94;100.00;102538.31;5041624;28;20045;-78
2022/03/27 05:08:58;;;;;;;1627.63;999.90;;;;;;;1.99;100.00;102541.31;5036142;28;20049;-79
2022/03/27 05:11:28;;;;;;;1628.05;999.90;;;;;;;2.01;100.00;102539.25;5049159;28;20061;-80
2022/03/27 05:14:01;;;;;;;1631.70;999.90;;;;;;;1.95;100.00;102539.16;5052755;28;20045;-79
2022/03/27 05:16:29;;;;;;;1640.63;999.90;;;;;;;1.89;100.00;102540.66;5055070;28;20045;-79
2022/03/27 05:18:57;;;;;;;1638.65;999.90;;;;;;;1.90;100.00;102547.72;5052061;28;20048;-79
2022/03/27 05:21:30;;;;;;;1642.97;999.90;;;;;;;2.00;100.00;102537.59;5039884;28;20500;-80
2022/03/27 05:24:08;;;;;;;1648.07;999.90;;;;;;;2.02;100.00;102543.63;5046164;28;20049;-79
2022/03/27 05:26:37;;;;;;;1643.07;999.90;;;;;;;2.08;100.00;102544.75;5038283;28;20045;-79
2022/03/27 05:29:08;;;;;;;1646.13;999.90;;;;;;;1.97;100.00;102515.63;5037472;28;20053;-79
2022/03/27 05:31:41;;;;;;;1648.65;999.90;;;;;;;1.99;100.00;102518.97;5039931;28;20049;-79
2022/03/27 05:34:14;;;;;;;1651.95;999.90;;;;;;;2.24;100.00;102556.41;5049491;28;20048;-81
2022/03/27 05:36:47;;;;;;;1648.43;999.90;;;;;;;2.28;100.00;102558.59;5050333;28;20052;-80
2022/03/27 05:39:21;;;;;;;1647.43;999.90;;;;;;;2.27;100.00;102540.78;5045442;28;20050;-79
2022/03/27 05:41:55;;;;;;;1647.97;999.90;;;;;;;2.43;100.00;102552.44;5036252;28;20049;-80
2022/03/27 05:44:23;;;;;;;1655.43;999.90;;;;;;;2.42;100.00;102548.06;5044834;28;20049;-80
2022/03/27 05:46:56;;;;;;;1661.45;999.90;;;;;;;2.37;100.00;102537.84;5055812;28;20493;-78
2022/03/27 05:49:29;;;;;;;1671.63;999.90;;;;;;;2.50;100.00;102542.63;5050671;28;20050;-79
2022/03/27 05:51:58;;;;;;;1687.28;999.90;;;;;;;2.50;100.00;102526.50;5040861;28;20481;-79
2022/03/27 05:54:32;;;;;;;1698.55;999.90;;;;;;;2.57;100.00;102527.47;5053917;28;20049;-79
2022/03/27 05:57:05;;;;;;;1711.63;999.90;;;;;;;2.58;100.00;102534.50;5038663;28;20061;-79
2022/03/27 05:59:33;;;;;;;1719.20;999.90;;;;;;;2.65;100.00;102545.38;5041954;28;20045;-80
2022/03/27 06:02:01;;;;;;;1720.72;999.90;;;;;;;2.74;100.00;102546.16;5041915;28;20402;-80
2022/03/27 06:04:35;;;;;;;1719.10;999.90;;;;;;;2.81;100.00;102555.16;5043345;28;20040;-78
2022/03/27 06:07:08;;;;;;;1723.78;999.90;;;;;;;2.87;100.00;102544.50;5041381;28;20041;-79
2022/03/27 06:09:43;;;;;;;1728.30;999.90;;;;;;;2.87;100.00;102532.91;5035531;28;20418;-79
2022/03/27 06:12:12;;;;;;;1730.65;999.90;;;;;;;2.97;100.00;102535.31;5043112;28;20049;-79
2022/03/27 06:14:40;;;;;;;1741.25;999.90;;;;;;;3.01;100.00;102534.81;5048839;28;20049;-79
2022/03/27 06:17:13;;;;;;;1744.85;999.90;;;;;;;3.10;100.00;102532.03;5053472;28;20120;-79
2022/03/27 06:19:46;;;;;;;1758.85;999.90;;;;;;;3.21;100.00;102535.09;5043949;28;20052;-80
2022/03/27 06:22:19;;;;;;;1765.63;999.90;;;;;;;3.33;100.00;102543.53;5044541;28;20056;-80
2022/03/27 06:24:49;;;;;;;1778.35;999.90;;;;;;;3.44;100.00;102544.09;5044426;28;20048;-79
2022/03/27 06:27:22;;;;;;;1770.60;999.90;;;;;;;3.37;100.00;102525.16;5044483;28;20045;-79
2022/03/27 06:29:50;;;;;;;1770.88;999.90;;;;;;;3.41;100.00;102542.59;5049243;28;20044;-79
2022/03/27 06:32:18;;;;;;;1754.13;999.90;;;;;;;3.45;100.00;102543.06;5054981;28;20049;-78
2022/03/27 06:34:51;;;;;;;1749.68;999.90;;;;;;;3.24;100.00;102544.63;5039475;28;20045;-79
2022/03/27 06:37:25;;;;;;;1750.20;999.90;;;;;;;3.17;100.00;102544.53;5059177;28;20068;-80
2022/03/27 06:39:55;;;;;;;1753.20;999.90;;;;;;;3.08;100.00;102551.03;5045867;28;20052;-79
2022/03/27 06:42:29;;;;;;;1750.15;999.90;;;;;;;3.04;100.00;102550.56;5045895;28;20064;-78
2022/03/27 06:45:03;;;;;;;1743.07;999.90;;;;;;;2.83;100.00;102548.59;5040117;28;20041;-79
2022/03/27 06:47:36;;;;;;;1736.90;999.90;;;;;;;2.79;100.00;102549.97;5036875;28;20037;-79
2022/03/27 06:50:10;;;;;;;1739.35;999.90;;;;;;;2.89;100.00;102565.84;5037876;28;20042;-80
2022/03/27 06:52:38;;;;;;;1752.07;999.90;;;;;;;2.97;100.00;102562.22;5032592;28;20465;-78
2022/03/27 06:55:09;;;;;;;1762.15;999.90;;;;;;;3.13;100.00;102562.06;5041214;28;20041;-79
2022/03/27 06:57:43;;;;;;;1771.53;999.90;;;;;;;3.25;100.00;102562.47;5041859;28;20056;-80
2022/03/27 07:03:03;;;;;;;1780.78;999.90;;;;;;;3.28;100.00;102563.97;5045180;28;20532;-80
2022/03/27 07:05:31;;;;;;;1780.25;999.90;;;;;;;3.27;100.00;102575.72;5046233;28;20553;-80
2022/03/27 07:08:06;;;;;;;1780.30;999.90;;;;;;;3.23;100.00;102580.63;5048249;28;20636;-80
2022/03/27 07:10:42;;;;;;;1774.47;999.90;;;;;;;3.37;100.00;102581.66;5047492;28;20056;-80
2022/03/27 07:13:16;;;;;;;1780.50;999.90;;;;;;;3.49;100.00;102584.75;5040077;28;20054;-78
2022/03/27 07:15:50;;;;;;;1784.75;999.90;;;;;;;3.56;100.00;102589.22;5055015;28;20053;-79
2022/03/27 07:18:18;;;;;;;1797.35;999.90;;;;;;;3.62;100.00;102592.16;5043211;28;20056;-80
2022/03/27 07:20:51;;;;;;;1803.88;999.90;;;;;;;3.71;100.00;102589.19;5040145;28;20057;-79
2022/03/27 07:23:24;;;;;;;1808.68;999.90;;;;;;;3.81;100.00;102594.31;5038885;28;20063;-78
2022/03/27 07:25:55;;;;;;;1811.97;999.90;;;;;;;3.93;100.00;102610.81;5040582;28;20064;-77
2022/03/27 07:28:30;;;;;;;1822.65;999.90;;;;;;;4.01;100.00;102607.19;5039131;28;20041;-77
2022/03/27 07:31:04;;;;;;;1831.93;999.90;;;;;;;4.13;100.00;102604.84;5039106;28;20068;-78
2022/03/27 07:33:37;;;;;;;1838.45;999.90;;;;;;;4.14;100.00;102604.63;5035107;28;20414;-79
2022/03/27 07:36:10;;;;;;;1850.03;999.90;;;;;;;4.19;100.00;102610.31;5038249;28;20061;-77
2022/03/27 07:38:44;;;;;;;1850.68;999.90;;;;;;;4.06;100.00;102597.53;5041377;28;20052;-78
2022/03/27 07:41:18;;;;;;;1856.13;999.90;;;;;;;4.20;100.00;102603.06;5037199;28;20049;-79
2022/03/27 07:43:52;;;;;;;1861.15;999.90;;;;;;;4.19;100.00;102602.22;5045937;28;20539;-80
2022/03/27 07:46:26;;;;;;;1868.88;999.90;;;;;;;4.27;100.00;102593.19;5037097;28;20056;-78
2022/03/27 07:48:55;;;;;;;1871.47;999.90;;;;;;;4.33;100.00;102584.34;5031874;28;20053;-79
2022/03/27 07:51:29;;;;;;;1868.75;999.90;;;;;;;4.31;100.00;102575.63;5037800;28;20063;-77
2022/03/27 07:54:02;;;;;;;1872.25;999.90;;;;;;;4.30;100.00;102571.25;5043674;28;20057;-79
2022/03/27 07:56:33;;;;;;;1872.85;999.90;;;;;;;4.37;100.00;102571.31;5038947;28;20359;-78
2022/03/27 07:59:01;;;;;;;1876.55;999.90;;;;;;;4.51;100.00;102578.50;5036709;28;20057;-78
2022/03/27 08:01:35;;;;;;;1880.20;999.90;;;;;;;4.51;100.00;102570.41;5033269;28;20073;-79
2022/03/27 08:04:05;;;;;;;1887.35;999.90;;;;;;;4.59;100.00;102574.84;5039572;28;20049;-78
2022/03/27 08:06:38;;;;;;;1884.13;999.90;;;;;;;4.61;100.00;102575.47;5035665;28;20049;-78
2022/03/27 08:09:11;;;;;;;1898.20;999.90;;;;;;;4.74;100.00;102562.13;5032320;28;20042;-78
2022/03/27 08:11:42;;;;;;;1898.03;999.90;;;;;;;4.80;100.00;102571.31;5034361;28;20041;-78
2022/03/27 08:14:15;;;;;;;1893.53;999.90;;;;;;;4.89;100.00;102580.09;5044204;28;20088;-78
2022/03/27 08:16:48;;;;;;;1900.68;999.90;;;;;;;4.99;100.00;102571.69;5034419;28;20058;-79
2022/03/27 08:19:21;;;;;;;1899.05;999.90;;;;;;;5.08;100.00;102578.56;5043964;28;20059;-79
2022/03/27 08:21:55;;;;;;;1897.57;999.90;;;;;;;5.11;100.00;102564.72;5042536;28;20053;-79
2022/03/27 08:24:23;;;;;;;1902.82;999.90;;;;;;;5.25;100.00;102582.66;5038779;28;20057;-79
2022/03/27 08:26:58;;;;;;;1916.68;999.90;;;;;;;5.41;100.00;102583.38;5041210;28;20060;-79
2022/03/27 08:29:33;;;;;;;1923.00;999.90;;;;;;;5.41;100.00;102586.94;5037046;28;20378;-80
2022/03/27 08:32:08;;;;;;;1930.60;999.90;;;;;;;5.46;100.00;102578.22;5035611;28;20524;-79
2022/03/27 08:34:43;;;;;;;1939.85;999.90;;;;;;;5.54;100.00;102579.94;5029443;28;20420;-80
2022/03/27 08:37:18;;;;;;;1958.63;999.90;;;;;;;5.59;100.00;102585.56;5031166;28;20072;-80
2022/03/27 08:39:53;;;;;;;1973.22;999.90;;;;;;;5.72;100.00;102582.09;5032856;28;20060;-80
2022/03/27 08:42:22;;;;;;;1987.18;999.90;;;;;;;5.67;100.00;102592.66;5018004;28;20598;-80
2022/03/27 08:44:55;;;;;;;1993.43;999.90;;;;;;;5.74;100.00;102593.53;5024471;28;20381;-81
2022/03/27 08:47:29;;;;;;;1999.07;999.90;;;;;;;5.65;100.00;102594.72;5023730;28;20048;-80
2022/03/27 08:50:02;;;;;;;1999.32;999.90;;;;;;;5.71;100.00;102588.53;5021029;28;20520;-80
2022/03/27 08:52:48;;;;;;;1999.90;999.90;;;;;;;5.64;100.00;102584.97;5024645;28;20049;-81
2022/03/27 08:55:27;;;;;;;1999.50;999.90;;;;;;;5.66;100.00;102596.41;5023654;28;20067;-81
2022/03/27 08:58:01;;;;;;;1999.90;999.90;;;;;;;5.68;100.00;102592.47;5021400;28;20048;-81
2022/03/27 09:00:33;;;;;;;1999.90;999.90;;;;;;;5.70;100.00;102595.78;5023367;28;20056;-80
2022/03/27 09:03:05;;;;;;;1999.90;999.90;;;;;;;5.81;100.00;102593.56;5021350;28;20061;-81
2022/03/27 09:05:39;;;;;;;1999.90;999.90;;;;;;;5.75;100.00;102596.03;5017972;28;20055;-81
2022/03/27 09:08:16;;;;;;;1999.90;999.90;;;;;;;5.82;100.00;102593.38;5022827;28;20584;-81
2022/03/27 09:10:49;;;;;;;1999.90;999.90;;;;;;;5.89;100.00;102571.78;5021868;28;20068;-81
2022/03/27 09:13:20;;;;;;;1999.90;999.90;;;;;;;6.05;100.00;102578.72;5028975;28;20044;-80
2022/03/27 09:16:01;;;;;;;1999.90;999.90;;;;;;;6.00;100.00;102565.81;5019612;28;20056;-81
2022/03/27 09:18:44;;;;;;;1999.90;999.90;;;;;;;6.21;100.00;102569.41;5025333;28;20057;-82
2022/03/27 09:21:12;;;;;;;1999.90;999.90;;;;;;;6.14;100.00;102572.09;5030256;28;20493;-82
2022/03/27 09:23:52;;;;;;;1999.90;999.90;;;;;;;6.41;100.00;102564.88;5025542;28;20056;-81
2022/03/27 09:26:26;;;;;;;1999.90;999.90;;;;;;;6.66;100.00;102574.28;5022708;28;20080;-82
2022/03/27 09:29:08;;;;;;;1999.90;999.90;;;;;;;6.66;100.00;102563.44;5026201;28;20049;-81
2022/03/27 09:31:41;;;;;;;1999.90;999.90;;;;;;;6.72;100.00;102568.03;5029921;28;20060;-82
2022/03/27 09:34:14;;;;;;;1999.90;999.90;;;;;;;6.90;100.00;102565.53;5035226;28;20061;-82
2022/03/27 09:36:47;;;;;;;1999.90;999.90;;;;;;;7.14;100.00;102572.19;5021643;28;20067;-79
2022/03/27 09:39:18;;;;;;;1999.90;999.90;;;;;;;7.24;100.00;102577.19;5022214;28;20056;-79
2022/03/27 09:41:48;;;;;;;1999.90;999.90;;;;;;;7.30;100.00;102570.09;5021291;28;20059;-80
2022/03/27 09:44:23;;;;;;;1999.90;999.90;;;;;;;7.45;100.00;102576.09;5024133;28;20064;-80
2022/03/27 09:46:59;;;;;;;1999.90;999.90;;;;;;;7.61;100.00;102577.53;5024154;28;20713;-81
2022/03/27 09:49:41;;;;;;;1999.90;999.90;;;;;;;7.70;100.00;102577.28;5027027;28;20049;-81
2022/03/27 09:52:16;;;;;;;1999.90;999.90;;;;;;;7.82;100.00;102567.44;5023400;28;20080;-80
2022/03/27 09:54:53;;;;;;;1999.90;999.90;;;;;;;7.90;100.00;102579.91;5028291;28;20045;-80
2022/03/27 09:57:23;;;;;;;1999.90;999.90;;;;;;;7.88;100.00;102572.00;5019221;28;20590;-81
2022/03/27 10:00:00;;;;;;;1999.90;999.90;;;;;;;7.88;100.00;102565.75;5022691;28;20068;-80
2022/03/27 10:02:30;;;;;;;1999.90;999.90;;;;;;;7.86;100.00;102551.56;5026677;28;20065;-80
2022/03/27 10:05:03;;;;;;;1999.90;999.90;;;;;;;8.14;100.00;102565.59;5030718;28;20072;-80
2022/03/27 10:07:37;;;;;;;1999.90;999.90;;;;;;;8.16;100.00;102563.53;5026876;28;20060;-80
2022/03/27 10:10:08;;;;;;;1999.90;999.90;;;;;;;8.18;100.00;102547.84;5024774;28;20057;-80
2022/03/27 10:12:43;;;;;;;1999.90;999.90;;;;;;;8.63;100.00;102556.97;5024911;28;20049;-82
2022/03/27 10:15:19;;;;;;;1999.90;999.90;;;;;;;8.62;100.00;102553.44;5024525;28;20478;-80
2022/03/27 10:17:56;;;;;;;1999.90;999.90;;;;;;;8.53;100.00;102559.38;5023939;28;20065;-79
2022/03/27 10:20:28;;;;;;;1975.50;999.90;;;;;;;8.65;100.00;102552.19;5024071;28;20053;-80
2022/03/27 10:23:04;;;;;;;1976.85;999.90;;;;;;;8.75;100.00;102557.09;5024312;28;20421;-80
2022/03/27 10:25:41;;;;;;;1947.85;999.90;;;;;;;8.88;100.00;102539.88;5026611;28;20073;-80
2022/03/27 10:28:17;;;;;;;1923.90;999.90;;;;;;;9.14;100.00;102542.34;5023871;28;20621;-80
2022/03/27 10:30:52;;;;;;;1919.80;999.90;;;;;;;9.30;100.00;102542.81;5045635;28;20056;-80
2022/03/27 10:33:28;;;;;;;1893.65;999.90;;;;;;;9.45;100.00;102543.25;5023029;28;20065;-80
2022/03/27 10:36:01;;;;;;;1885.25;999.90;;;;;;;9.45;100.00;102529.69;5016048;28;20057;-80
2022/03/27 10:38:46;;;;;;;1820.75;999.90;;;;;;;9.43;100.00;102534.53;5025597;28;20052;-81
2022/03/27 10:41:26;;;;;;;1757.35;999.90;;;;;;;9.38;100.00;102504.47;5023675;28;20053;-81
2022/03/27 10:44:07;;;;;;;1704.53;999.90;;;;;;;9.72;100.00;102529.34;5019409;28;20053;-80
2022/03/27 10:46:46;;;;;;;1656.45;999.90;;;;;;;9.68;100.00;102530.84;5020436;28;20053;-80
2022/03/27 10:49:16;;;;;;;1593.85;999.90;;;;;;;9.65;100.00;102526.72;5019853;28;20060;-81
2022/03/27 10:51:49;;;;;;;1493.90;999.90;;;;;;;9.80;100.00;102522.78;5019842;28;20049;-81
2022/03/27 10:54:23;;;;;;;1488.85;999.90;;;;;;;9.89;100.00;102518.69;5019847;28;20045;-82
2022/03/27 10:56:56;;;;;;;1423.47;999.90;;;;;;;10.03;100.00;102522.06;5024322;28;20053;-80
2022/03/27 10:59:43;;;;;;;1372.35;999.90;;;;;;;10.00;100.00;102514.34;5015012;28;20053;-82
2022/03/27 11:02:42;;;;;;;1352.68;999.90;;;;;;;10.05;100.00;102506.31;5005747;28;21358;-81
2022/03/27 11:05:54;;;;;;;1352.43;999.90;;;;;;;10.34;100.00;102517.41;5017327;28;20053;-80
2022/03/27 11:08:47;;;;;;;1332.13;999.90;;;;;;;10.40;100.00;102507.50;5010693;28;20053;-80
2022/03/27 11:12:00;;;;;;;1306.03;999.90;;;;;;;10.62;100.00;102522.22;5006144;28;20056;-80
2022/03/27 11:15:02;;;;;;;1303.30;999.90;;;;;;;10.81;100.00;102513.94;5027758;28;20052;-80
2022/03/27 11:17:45;;;;;;;1292.80;999.90;;;;;;;10.79;100.00;102510.66;5030247;28;20057;-80